createdAt,value
2017-11-10T00:01:32.043Z,55.35
2017-11-10T00:04:03.738Z,55.24
2017-11-10T00:06:35.896Z,55.16
2017-11-10T00:09:08.169Z,55.16
2017-11-10T00:11:39.968Z,55.08
2017-11-10T00:14:13.853Z,55.01
2017-11-10T00:16:45.204Z,55.00
2017-11-10T00:19:20.644Z,54.96
2017-11-10T00:21:54.075Z,54.94
2017-11-10T00:24:26.847Z,54.96
2017-11-10T00:26:59.499Z,54.94
2017-11-10T00:29:32.141Z,54.85
2017-11-10T00:32:04.779Z,54.83
2017-11-10T00:34:38.081Z,54.76
2017-11-10T00:37:14.200Z,54.73
2017-11-10T00:39:45.885Z,54.64
2017-11-10T00:42:17.586Z,54.61
2017-11-10T00:44:49.228Z,54.58
2017-11-10T00:47:20.482Z,54.56
2017-11-10T00:49:51.706Z,54.52
2017-11-10T00:52:23.998Z,54.41
2017-11-10T00:54:55.076Z,54.31
2017-11-10T00:57:27.606Z,54.25
2017-11-10T01:00:06.849Z,54.17
2017-11-10T01:02:40.808Z,54.08
2017-11-10T01:05:15.226Z,54.03
2017-11-10T01:07:47.157Z,54.00
2017-11-10T01:10:18.686Z,53.92
2017-11-10T01:12:50.483Z,53.87
2017-11-10T01:15:22.128Z,53.82
2017-11-10T01:17:54.265Z,53.78
2017-11-10T01:20:25.606Z,53.75
2017-11-10T01:22:57.050Z,53.72
2017-11-10T01:25:28.964Z,53.66
2017-11-10T01:28:00.238Z,53.65
2017-11-10T01:30:31.477Z,53.63
2017-11-10T01:33:02.908Z,53.64
2017-11-10T01:35:34.628Z,53.65
2017-11-10T01:38:06.691Z,53.62
2017-11-10T01:40:38.485Z,53.59
2017-11-10T01:43:10.363Z,53.55
2017-11-10T01:45:42.510Z,53.50
2017-11-10T01:48:19.491Z,53.47
2017-11-10T01:50:51.610Z,53.40
2017-11-10T01:53:24.202Z,53.39
2017-11-10T01:55:59.086Z,53.37
2017-11-10T01:58:30.929Z,53.33
2017-11-10T02:01:03.632Z,53.27
2017-11-10T02:03:35.184Z,53.23
2017-11-10T02:06:06.447Z,53.18
2017-11-10T02:08:38.106Z,53.12
2017-11-10T02:11:09.556Z,53.11
2017-11-10T02:13:40.771Z,53.07
2017-11-10T02:16:16.030Z,53.03
2017-11-10T02:18:47.373Z,52.94
2017-11-10T02:21:20.439Z,52.88
2017-11-10T02:23:52.225Z,52.82
2017-11-10T02:26:28.538Z,52.73
2017-11-10T02:29:00.420Z,52.66
2017-11-10T02:31:36.801Z,52.60
2017-11-10T02:34:08.424Z,52.54
2017-11-10T02:36:40.256Z,52.48
2017-11-10T02:39:21.037Z,52.38
2017-11-10T02:41:53.153Z,52.35
2017-11-10T02:44:24.428Z,52.27
2017-11-10T02:46:56.878Z,52.22
2017-11-10T02:49:29.633Z,52.20
2017-11-10T02:52:05.935Z,52.18
2017-11-10T02:54:37.399Z,52.12
2017-11-10T02:57:27.577Z,52.09
2017-11-10T03:00:06.160Z,52.07
2017-11-10T03:02:38.629Z,52.03
2017-11-10T03:05:18.781Z,51.96
2017-11-10T03:07:50.330Z,52.00
2017-11-10T03:54:19.770Z,52.26
2017-11-10T03:56:54.953Z,52.10
2017-11-10T03:59:27.012Z,51.93
2017-11-10T04:02:00.485Z,51.81
2017-11-10T04:04:34.475Z,51.71
2017-11-10T04:07:07.368Z,51.60
2017-11-10T04:09:41.569Z,51.51
2017-11-10T04:12:18.002Z,51.37
2017-11-10T04:14:49.866Z,51.31
2017-11-10T04:17:21.981Z,51.27
2017-11-10T04:19:53.476Z,51.24
2017-11-10T04:22:24.833Z,51.20
2017-11-10T04:24:56.002Z,51.19
2017-11-10T04:30:15.803Z,51.16
2017-11-10T04:32:47.025Z,51.15
2017-11-10T04:35:18.693Z,51.14
2017-11-10T04:37:49.988Z,51.15
2017-11-10T04:40:21.071Z,51.13
2017-11-10T04:42:52.322Z,51.13
2017-11-10T04:45:23.514Z,51.06
2017-11-10T04:47:54.676Z,51.08
2017-11-10T04:50:26.354Z,51.07
2017-11-10T04:52:57.393Z,51.03
2017-11-10T04:55:28.418Z,51.03
2017-11-10T04:58:00.316Z,51.00
2017-11-10T05:00:31.518Z,51.02
2017-11-10T05:03:02.517Z,51.04
2017-11-10T05:05:33.481Z,50.97
2017-11-10T05:08:04.533Z,50.93
2017-11-10T05:10:36.295Z,50.88
2017-11-10T05:13:07.635Z,50.78
2017-11-10T05:15:38.893Z,50.65
2017-11-10T05:18:12.724Z,50.56
2017-11-10T05:20:44.199Z,50.44
2017-11-10T05:23:17.426Z,50.34
2017-11-10T05:25:48.710Z,50.30
2017-11-10T05:28:19.814Z,50.22
2017-11-10T05:30:50.940Z,50.18
2017-11-10T05:33:22.518Z,50.17
2017-11-10T05:35:53.929Z,50.17
2017-11-10T05:38:25.222Z,50.13
2017-11-10T05:40:56.818Z,50.16
2017-11-10T05:43:28.416Z,50.18
2017-11-10T05:46:00.157Z,50.21
2017-11-10T05:48:31.762Z,50.18
2017-11-10T05:51:03.199Z,50.17
2017-11-10T05:53:34.833Z,50.19
2017-11-10T05:56:06.306Z,50.15
2017-11-10T05:58:38.347Z,50.14
2017-11-10T06:01:09.858Z,50.18
2017-11-10T06:03:42.144Z,50.18
2017-11-10T06:06:16.446Z,50.16
2017-11-10T06:08:48.370Z,50.19
2017-11-10T06:11:19.708Z,50.19
2017-11-10T06:13:51.217Z,50.14
2017-11-10T06:16:22.524Z,50.15
2017-11-10T06:18:57.753Z,50.16
2017-11-10T06:21:29.204Z,50.22
2017-11-10T06:24:00.582Z,50.17
2017-11-10T06:26:33.808Z,50.12
2017-11-10T06:29:05.799Z,50.06
2017-11-10T06:31:38.016Z,49.97
2017-11-10T06:34:10.477Z,49.85
2017-11-10T06:36:43.887Z,49.76
2017-11-10T06:39:19.019Z,49.66
2017-11-10T06:41:50.387Z,49.56
2017-11-10T06:44:22.170Z,49.50
2017-11-10T06:46:53.665Z,49.47
2017-11-10T06:49:25.101Z,49.44
2017-11-10T06:51:58.086Z,49.43
2017-11-10T06:54:29.606Z,49.42
2017-11-10T06:57:02.074Z,49.40
2017-11-10T06:59:35.677Z,49.43
2017-11-10T07:02:07.182Z,49.46
2017-11-10T07:04:40.285Z,49.48
2017-11-10T07:07:14.112Z,49.52
2017-11-10T07:09:46.881Z,49.58
2017-11-10T07:12:20.138Z,49.57
2017-11-10T07:14:52.486Z,49.60
2017-11-10T07:17:24.602Z,49.62
2017-11-10T07:19:56.495Z,49.64
2017-11-10T07:22:27.672Z,49.61
2017-11-10T07:25:02.602Z,49.59
2017-11-10T07:27:34.108Z,49.58
2017-11-10T07:30:06.645Z,49.60
2017-11-10T07:32:38.238Z,49.60
2017-11-10T07:35:09.492Z,49.62
2017-11-10T07:37:41.417Z,49.63
2017-11-10T07:40:14.995Z,49.61
2017-11-10T07:42:46.491Z,49.62
2017-11-10T07:45:18.634Z,49.65
2017-11-10T07:47:49.761Z,49.64
2017-11-10T07:50:21.194Z,49.59
2017-11-10T07:52:52.454Z,49.51
2017-11-10T07:55:23.873Z,49.41
2017-11-10T07:57:55.861Z,49.35
2017-11-10T08:00:27.496Z,49.25
2017-11-10T08:02:58.895Z,49.15
2017-11-10T08:05:30.496Z,49.07
2017-11-10T08:08:01.820Z,49.01
2017-11-10T08:10:33.144Z,48.90
2017-11-10T08:13:17.280Z,48.87
2017-11-10T08:15:48.435Z,48.86
2017-11-10T08:18:22.054Z,48.84
2017-11-10T08:20:53.271Z,48.85
2017-11-10T08:23:26.475Z,48.83
2017-11-10T08:26:00.258Z,48.88
2017-11-10T08:28:34.280Z,48.92
2017-11-10T08:31:06.830Z,48.95
2017-11-10T08:33:44.909Z,48.96
2017-11-10T08:36:19.698Z,48.96
2017-11-10T08:38:51.335Z,48.91
2017-11-10T08:41:24.210Z,48.93
2017-11-10T08:43:55.738Z,48.91
2017-11-10T08:46:26.834Z,48.97
2017-11-10T08:48:57.977Z,48.95
2017-11-10T08:51:30.409Z,48.92
2017-11-10T08:54:02.190Z,48.91
2017-11-10T08:56:34.487Z,48.91
2017-11-10T08:59:06.355Z,48.84
2017-11-10T09:01:37.832Z,48.74
2017-11-10T09:04:09.550Z,48.66
2017-11-10T09:06:41.020Z,48.59
2017-11-10T09:09:14.584Z,48.61
2017-11-10T09:11:46.292Z,48.60
2017-11-10T09:14:20.592Z,48.55
2017-11-10T09:16:51.990Z,48.50
2017-11-10T09:19:26.989Z,48.37
2017-11-10T09:22:25.916Z,48.18
2017-11-10T09:27:42.675Z,47.84
2017-11-10T09:30:18.431Z,47.70
2017-11-10T09:32:50.102Z,47.53
2017-11-10T09:35:21.722Z,47.38
2017-11-10T09:37:53.614Z,47.33
2017-11-10T09:40:25.630Z,47.29
2017-11-10T09:42:58.009Z,47.29
2017-11-10T09:45:29.796Z,47.23
2017-11-10T09:48:05.263Z,47.24
2017-11-10T09:50:40.813Z,47.27
2017-11-10T09:53:15.377Z,47.35
2017-11-10T09:55:46.970Z,47.38
2017-11-10T09:58:20.264Z,47.38
2017-11-10T10:00:51.606Z,47.38
2017-11-10T10:03:23.404Z,47.41
2017-11-10T10:05:55.030Z,47.28
2017-11-10T10:08:27.812Z,47.13
2017-11-10T10:10:59.288Z,47.02
2017-11-10T10:13:30.753Z,47.11
2017-11-10T10:16:03.083Z,46.96
2017-11-10T10:18:34.928Z,46.83
2017-11-10T10:21:17.884Z,46.87
2017-11-10T10:23:49.513Z,46.75
2017-11-10T10:26:21.077Z,46.70
2017-11-10T10:28:52.578Z,46.73
2017-11-10T10:31:23.747Z,46.87
2017-11-10T10:33:54.926Z,47.02
2017-11-10T10:36:28.099Z,47.07
2017-11-10T10:38:59.575Z,47.18
2017-11-10T10:41:30.882Z,47.26
2017-11-10T10:44:03.015Z,47.33
2017-11-10T10:46:35.627Z,47.33
2017-11-10T10:49:18.033Z,47.29
2017-11-10T10:51:52.130Z,47.26
2017-11-10T10:54:27.146Z,47.03
2017-11-10T10:57:01.656Z,46.93
2017-11-10T10:59:33.877Z,46.85
2017-11-10T11:02:08.872Z,46.70
2017-11-10T11:04:42.258Z,46.69
2017-11-10T11:07:22.655Z,46.53
2017-11-10T11:09:55.778Z,46.49
2017-11-10T11:12:36.328Z,46.52
2017-11-10T11:15:15.865Z,46.45
2017-11-10T11:17:50.657Z,46.41
2017-11-10T11:20:25.370Z,46.37
2017-11-10T11:23:01.076Z,46.27
2017-11-10T11:25:33.124Z,46.26
2017-11-10T11:28:11.207Z,46.21
2017-11-10T11:30:44.846Z,46.19
2017-11-10T11:33:27.199Z,46.16
2017-11-10T11:36:02.196Z,46.22
2017-11-10T11:38:33.716Z,46.19
2017-11-10T11:41:07.205Z,46.16
2017-11-10T11:44:02.270Z,46.15
2017-11-10T11:46:38.259Z,46.10
2017-11-10T11:49:18.213Z,46.09
2017-11-10T11:51:53.345Z,46.09
2017-11-10T11:54:54.050Z,46.05
2017-11-10T11:57:27.609Z,46.18
2017-11-10T12:00:00.028Z,46.27
2017-11-10T12:02:31.930Z,46.38
2017-11-10T12:05:03.469Z,46.50
2017-11-10T12:07:35.789Z,46.63
2017-11-10T12:10:08.003Z,46.71
2017-11-10T12:12:39.564Z,46.70
2017-11-10T12:15:14.900Z,46.71
2017-11-10T12:17:46.969Z,46.72
2017-11-10T12:20:21.678Z,46.70
2017-11-10T12:22:54.632Z,46.68
2017-11-10T12:25:26.863Z,46.71
2017-11-10T12:27:58.714Z,46.68
2017-11-10T12:30:31.146Z,46.65
2017-11-10T12:33:03.246Z,46.54
2017-11-10T12:35:35.730Z,46.46
2017-11-10T12:38:09.564Z,46.43
2017-11-10T12:40:41.320Z,46.47
2017-11-10T12:43:14.495Z,46.51
2017-11-10T12:45:46.829Z,46.54
2017-11-10T12:48:20.424Z,46.56
2017-11-10T12:50:53.235Z,46.64
2017-11-10T13:03:21.556Z,47.03
2017-11-10T13:05:52.942Z,47.15
2017-11-10T13:08:24.690Z,47.24
2017-11-10T13:10:56.116Z,47.25
2017-11-10T13:13:28.029Z,47.30
2017-11-10T13:16:00.264Z,47.39
2017-11-10T13:18:32.254Z,47.43
2017-11-10T13:21:05.912Z,47.43
2017-11-10T13:23:37.347Z,47.46
2017-11-10T13:26:12.719Z,47.50
2017-11-10T13:28:45.122Z,47.55
2017-11-10T13:31:18.778Z,47.59
2017-11-10T13:33:50.089Z,47.58
2017-11-10T13:36:24.800Z,47.62
2017-11-10T13:38:58.420Z,47.66
2017-11-10T13:41:30.948Z,47.76
2017-11-10T13:44:05.381Z,47.76
2017-11-10T13:46:37.209Z,47.77
2017-11-10T13:49:11.965Z,47.72
2017-11-10T13:51:45.295Z,47.66
2017-11-10T13:54:19.656Z,47.66
2017-11-10T13:56:53.133Z,47.62
2017-11-10T13:59:26.325Z,47.52
2017-11-10T14:02:02.512Z,47.35
2017-11-10T14:04:35.675Z,47.29
2017-11-10T14:07:07.720Z,47.18
2017-11-10T14:09:39.487Z,47.07
2017-11-10T14:12:14.493Z,47.03
2017-11-10T14:14:49.883Z,46.94
2017-11-10T14:17:21.948Z,46.94
2017-11-10T14:19:57.813Z,46.98
2017-11-10T14:22:29.713Z,47.03
2017-11-10T14:25:01.536Z,47.11
2017-11-10T14:27:36.061Z,47.15
2017-11-10T14:30:14.380Z,47.17
2017-11-10T14:32:50.185Z,47.28
2017-11-10T14:35:23.585Z,47.34
2017-11-10T14:37:57.328Z,47.41
2017-11-10T14:40:28.527Z,47.56
2017-11-10T14:43:01.260Z,47.62
2017-11-10T14:45:32.854Z,47.67
2017-11-10T14:48:05.816Z,47.74
2017-11-10T14:50:37.687Z,47.72
2017-11-10T14:53:09.343Z,47.67
2017-11-10T14:55:41.173Z,47.68
2017-11-10T14:58:14.828Z,47.70
2017-11-10T15:00:46.386Z,47.70
2017-11-10T15:03:26.617Z,47.74
2017-11-10T15:06:08.302Z,47.83
2017-11-10T15:08:40.269Z,47.93
2017-11-10T15:11:16.520Z,47.92
2017-11-10T15:13:50.301Z,47.94
2017-11-10T15:16:21.989Z,47.92
2017-11-10T15:18:53.608Z,47.94
2017-11-10T15:21:24.861Z,47.91
2017-11-10T15:23:56.367Z,47.91
2017-11-10T15:26:27.695Z,47.86
2017-11-10T15:29:05.532Z,47.88
2017-11-10T15:31:37.206Z,47.85
2017-11-10T15:34:08.952Z,47.80
2017-11-10T15:36:40.299Z,47.80
2017-11-10T15:39:15.879Z,47.84
2017-11-10T15:41:47.994Z,47.84
2017-11-10T15:44:22.079Z,47.83
2017-11-10T15:46:53.360Z,47.89
2017-11-10T15:49:25.768Z,47.95
2017-11-10T15:51:58.965Z,47.99
2017-11-10T15:54:31.939Z,48.00
2017-11-10T15:57:04.412Z,48.09
2017-11-10T15:59:38.259Z,48.16
2017-11-10T16:02:18.853Z,48.18
2017-11-10T16:04:50.754Z,48.23
2017-11-10T16:07:22.565Z,48.24
2017-11-10T16:09:54.770Z,48.26
2017-11-10T16:12:26.878Z,48.25
2017-11-10T16:14:58.944Z,48.22
2017-11-10T16:17:32.003Z,48.24
2017-11-10T16:20:04.107Z,48.29
2017-11-10T16:22:38.503Z,48.31
2017-11-10T16:25:13.672Z,48.28
2017-11-10T16:27:48.723Z,48.32
2017-11-10T16:30:20.539Z,48.38
2017-11-10T16:32:54.271Z,48.39
2017-11-10T16:35:28.792Z,48.40
2017-11-10T16:38:03.412Z,48.40
2017-11-10T16:40:38.539Z,48.39
2017-11-10T16:43:22.880Z,48.36
2017-11-10T16:45:58.659Z,48.33
2017-11-10T16:48:33.332Z,48.33
2017-11-10T16:51:07.081Z,48.30
2017-11-10T16:53:39.666Z,48.28
2017-11-10T16:56:15.789Z,48.26
2017-11-10T16:58:49.592Z,48.24
2017-11-10T17:01:21.720Z,48.25
2017-11-10T17:03:55.708Z,48.23
2017-11-10T17:06:28.536Z,48.23
2017-11-10T17:09:07.117Z,48.24
2017-11-10T17:11:43.265Z,48.25
2017-11-10T17:14:19.781Z,48.23
2017-11-10T17:16:52.847Z,48.23
2017-11-10T17:19:24.790Z,48.25
2017-11-10T17:21:57.081Z,48.27
2017-11-10T17:24:28.845Z,48.27
2017-11-10T17:27:05.794Z,48.28
2017-11-10T17:29:38.673Z,48.29
2017-11-10T17:32:17.056Z,48.29
2017-11-10T17:34:50.901Z,48.30
2017-11-10T17:37:22.909Z,48.34
2017-11-10T17:39:54.485Z,48.33
2017-11-10T17:42:29.764Z,48.34
2017-11-10T17:45:03.375Z,48.38
2017-11-10T17:47:35.233Z,48.38
2017-11-10T17:50:07.624Z,48.39
2017-11-10T17:52:40.322Z,48.38
2017-11-10T17:55:18.490Z,48.35
2017-11-10T17:57:51.855Z,48.39
2017-11-10T18:00:23.987Z,48.38
2017-11-10T18:02:56.600Z,48.39
2017-11-10T18:05:28.872Z,48.37
2017-11-10T18:08:03.650Z,48.38
2017-11-10T18:10:36.637Z,48.39
2017-11-10T18:13:20.274Z,48.44
2017-11-10T18:15:52.495Z,48.38
2017-11-10T18:18:27.376Z,48.36
2017-11-10T18:21:01.203Z,48.34
2017-11-10T18:23:42.981Z,48.33
2017-11-10T18:26:18.014Z,48.33
2017-11-10T18:28:51.639Z,48.29
2017-11-10T18:31:23.016Z,48.31
2017-11-10T18:33:58.526Z,48.29
2017-11-10T18:36:30.176Z,48.27
2017-11-10T18:39:03.601Z,48.24
2017-11-10T18:41:36.205Z,48.22
2017-11-10T18:44:13.480Z,48.23
2017-11-10T18:46:47.756Z,48.25
2017-11-10T18:49:24.375Z,48.24
2017-11-10T18:51:55.831Z,48.26
2017-11-10T18:54:27.668Z,48.30
2017-11-10T18:57:01.106Z,48.32
2017-11-10T18:59:32.712Z,48.33
2017-11-10T19:02:05.315Z,48.34
2017-11-10T19:04:37.579Z,48.37
2017-11-10T19:07:14.897Z,48.33
2017-11-10T19:10:01.097Z,48.41
2017-11-10T19:12:44.729Z,48.43
2017-11-10T19:15:19.380Z,48.47
2017-11-10T19:17:51.543Z,48.46
2017-11-10T19:20:24.846Z,48.49
2017-11-10T19:22:57.675Z,48.52
2017-11-10T19:25:30.744Z,48.55
2017-11-10T19:28:04.758Z,48.54
2017-11-10T19:30:36.812Z,48.60
2017-11-10T19:33:08.762Z,48.61
2017-11-10T19:35:40.108Z,48.66
2017-11-10T19:38:20.899Z,48.69
2017-11-10T19:41:16.897Z,48.67
2017-11-10T19:43:51.941Z,48.71
2017-11-10T19:46:24.045Z,48.71
2017-11-10T19:48:58.850Z,48.70
2017-11-10T19:51:31.183Z,48.70
2017-11-10T19:54:04.667Z,48.65
2017-11-10T19:56:36.904Z,48.64
2017-11-10T19:59:15.191Z,48.66
2017-11-10T20:01:52.480Z,48.68
2017-11-10T20:04:29.084Z,48.67
2017-11-10T20:07:00.901Z,48.65
2017-11-10T20:09:33.010Z,48.64
2017-11-10T20:12:07.078Z,48.64
2017-11-10T20:14:40.877Z,48.65
2017-11-10T20:17:13.303Z,48.67
2017-11-10T20:19:46.238Z,48.68
2017-11-10T20:22:26.982Z,48.72
2017-11-10T20:25:04.677Z,48.79
2017-11-10T20:27:50.564Z,48.81
2017-11-10T20:30:23.648Z,48.82
2017-11-10T20:32:55.974Z,48.83
2017-11-10T20:35:33.679Z,48.83
2017-11-10T20:38:07.979Z,48.82
2017-11-10T20:40:44.330Z,48.85
2017-11-10T20:43:18.641Z,48.84
2017-11-10T20:45:50.525Z,48.84
2017-11-10T20:48:25.276Z,48.81
2017-11-10T20:51:06.724Z,48.87
2017-11-10T20:53:39.541Z,48.92
2017-11-10T20:56:14.057Z,48.95
2017-11-10T20:58:50.852Z,48.97
2017-11-10T21:01:32.621Z,49.00
2017-11-10T21:04:06.826Z,49.04
2017-11-10T21:06:39.957Z,48.98
2017-11-10T21:09:14.444Z,48.97
2017-11-10T21:11:46.663Z,48.96
2017-11-10T21:14:21.008Z,48.92
2017-11-10T21:16:55.008Z,48.93
2017-11-10T21:19:30.516Z,48.90
2017-11-10T21:22:12.524Z,48.83
2017-11-10T21:24:47.988Z,48.78
2017-11-10T21:27:23.123Z,48.77
2017-11-10T21:29:55.657Z,48.75
2017-11-10T21:32:28.132Z,48.72
2017-11-10T21:35:03.134Z,48.75
2017-11-10T21:37:36.316Z,48.76
2017-11-10T21:41:15.233Z,48.77
2017-11-10T21:43:54.876Z,48.87
2017-11-10T21:46:26.703Z,48.94
2017-11-10T21:48:58.719Z,48.95
2017-11-10T21:51:30.193Z,48.96
2017-11-10T21:54:10.012Z,49.03
2017-11-10T21:56:46.279Z,49.03
2017-11-10T21:59:22.065Z,49.06
2017-11-10T22:01:57.798Z,49.05
2017-11-10T22:04:34.701Z,49.07
2017-11-10T22:07:08.337Z,49.11
2017-11-10T22:09:49.049Z,49.16
2017-11-10T22:12:23.308Z,49.19
2017-11-10T22:15:00.867Z,49.22
2017-11-10T22:17:38.793Z,49.25
2017-11-10T22:20:20.778Z,49.23
2017-11-10T22:22:54.658Z,49.24
2017-11-10T22:25:28.826Z,49.20
2017-11-10T22:36:29.277Z,48.95
2017-11-10T22:39:01.200Z,48.89
2017-11-10T22:41:33.387Z,48.82
2017-11-10T22:44:05.554Z,48.79
2017-11-10T22:46:37.108Z,48.77
2017-11-10T22:49:09.350Z,48.75
2017-11-10T22:51:50.098Z,48.76
2017-11-10T22:54:25.300Z,48.75
2017-11-10T22:56:57.514Z,48.74
2017-11-10T22:59:29.218Z,48.79
2017-11-10T23:02:02.164Z,48.82
2017-11-10T23:04:37.515Z,48.81
2017-11-10T23:07:09.498Z,48.82
2017-11-10T23:09:44.005Z,48.85
2017-11-10T23:12:18.533Z,48.86
2017-11-10T23:14:49.990Z,48.87
2017-11-10T23:17:21.855Z,48.91
2017-11-10T23:19:53.446Z,48.92
2017-11-10T23:22:25.237Z,48.93
2017-11-10T23:24:56.845Z,48.96
2017-11-10T23:27:28.026Z,49.00
2017-11-10T23:30:00.574Z,49.02
2017-11-10T23:32:32.046Z,49.03
2017-11-10T23:35:04.661Z,49.07
2017-11-10T23:37:44.381Z,49.07
2017-11-10T23:40:18.470Z,49.03
2017-11-10T23:42:51.085Z,49.01
2017-11-10T23:45:23.076Z,48.96
2017-11-10T23:47:54.689Z,48.92
2017-11-10T23:50:30.481Z,48.90
2017-11-10T23:53:02.242Z,48.81
2017-11-10T23:55:33.877Z,48.76
2017-11-10T23:58:05.103Z,48.72
